Time;durP1;ratioP1;P1;durP2;ratioP2;P2;SDS_P1;SDS_P2;PMS_P1;PMS_P2;Temp;Humidity;BMP_temperature;BMP_pressure;BME280_temperature;BME280_humidity;BME280_pressure;Samples;Min_cycle;Max_cycle;Signal;HPM_P1;HPM_P2
2023/06/10 00:00:43;;;;;;;7.57;4.65;;;17.00;99.90;;;;;;5154227;27;20058;-69
2023/06/10 00:03:09;;;;;;;5.28;4.50;;;16.90;99.90;;;;;;5153705;27;20452;-69
2023/06/10 00:05:35;;;;;;;5.20;4.70;;;16.90;99.90;;;;;;5153891;27;20360;-68
2023/06/10 00:08:07;;;;;;;6.03;4.68;;;16.90;99.90;;;;;;5154307;27;20066;-71
2023/06/10 00:10:37;;;;;;;5.22;4.40;;;16.90;99.90;;;;;;5154550;27;20063;-68
2023/06/10 00:13:04;;;;;;;9.57;5.10;;;16.80;99.90;;;;;;5153881;27;20053;-71
2023/06/10 00:15:31;;;;;;;8.63;4.85;;;16.80;99.90;;;;;;5153711;27;20561;-69
2023/06/10 00:17:57;;;;;;;5.32;4.70;;;16.70;99.90;;;;;;5157782;27;20043;-69
2023/06/10 00:20:23;;;;;;;6.78;4.60;;;16.70;99.90;;;;;;5157814;27;20043;-69
2023/06/10 00:22:49;;;;;;;7.13;4.78;;;16.70;99.90;;;;;;5157851;27;20046;-69
2023/06/10 00:25:15;;;;;;;8.23;4.68;;;16.70;99.90;;;;;;5157937;27;20046;-69
2023/06/10 00:27:41;;;;;;;6.93;5.03;;;16.60;99.90;;;;;;5139566;27;20511;-69
2023/06/10 00:30:07;;;;;;;7.25;4.60;;;16.50;99.90;;;;;;5158179;27;20503;-69
2023/06/10 00:32:34;;;;;;;7.70;4.47;;;16.50;99.90;;;;;;5157604;27;20047;-69
2023/06/10 00:34:59;;;;;;;8.02;4.93;;;16.50;99.90;;;;;;5139399;27;20471;-69
2023/06/10 00:37:25;;;;;;;9.50;5.90;;;16.50;99.90;;;;;;5157831;27;20131;-70
2023/06/10 00:39:51;;;;;;;9.45;5.40;;;16.40;99.90;;;;;;5157349;27;20046;-69
2023/06/10 00:42:17;;;;;;;8.50;5.60;;;16.50;99.90;;;;;;5157502;27;20035;-70
2023/06/10 00:44:42;;;;;;;11.23;5.32;;;16.40;99.90;;;;;;5157743;27;20382;-70
2023/06/10 00:47:08;;;;;;;7.93;5.05;;;16.40;99.90;;;;;;5157564;27;20043;-72
2023/06/10 00:49:34;;;;;;;6.68;5.40;;;16.30;99.90;;;;;;5158004;27;20043;-69
2023/06/10 00:52:02;;;;;;;9.05;5.13;;;16.30;99.90;;;;;;5158165;27;20047;-69
2023/06/10 00:54:28;;;;;;;9.35;5.90;;;16.30;99.90;;;;;;5157261;27;20058;-72
2023/06/10 00:56:54;;;;;;;6.45;5.75;;;16.20;99.90;;;;;;5157417;27;20043;-69
2023/06/10 00:59:20;;;;;;;9.35;6.00;;;16.20;99.90;;;;;;5157348;27;20047;-69
2023/06/10 01:01:49;;;;;;;8.63;5.30;;;16.80;99.90;;;;;;5139006;27;20061;-69
2023/06/10 01:04:17;;;;;;;7.75;5.68;;;15.80;99.90;;;;;;5138443;27;20129;-72
2023/06/10 01:06:57;;;;;;;8.10;5.63;;;16.00;99.90;;;;;;5156878;27;20522;-69
2023/06/10 01:09:43;;;;;;;8.55;5.88;;;16.60;99.90;;;;;;5157288;27;20042;-71
2023/06/10 01:12:48;;;;;;;6.00;5.38;;;16.00;99.90;;;;;;5138865;27;20156;-69
2023/06/10 01:15:17;;;;;;;7.13;5.18;;;15.90;99.90;;;;;;5142330;27;20058;-69
2023/06/10 01:18:01;;;;;;;7.82;5.53;;;15.80;99.90;;;;;;5156896;27;20121;-69
2023/06/10 01:20:28;;;;;;;9.40;5.82;;;15.80;99.90;;;;;;5156698;27;20043;-69
2023/06/10 01:22:58;;;;;;;7.40;5.25;;;15.80;99.90;;;;;;5137971;27;20046;-68
2023/06/10 01:25:29;;;;;;;6.15;5.43;;;15.80;99.90;;;;;;5156637;27;20126;-69
2023/06/10 01:28:07;;;;;;;6.93;5.07;;;15.80;99.90;;;;;;5155819;27;20047;-68
2023/06/10 01:31:00;;;;;;;7.03;4.32;;;15.70;99.90;;;;;;5138513;27;20045;-68
2023/06/10 01:33:29;;;;;;;7.28;5.50;;;15.70;99.90;;;;;;5138811;27;20065;-70
2023/06/10 01:36:01;;;;;;;6.25;4.90;;;15.60;99.90;;;;;;5138142;27;20482;-69
2023/06/10 01:38:30;;;;;;;8.48;5.60;;;15.60;99.90;;;;;;5156519;27;20075;-70
2023/06/10 01:40:56;;;;;;;10.30;5.60;;;15.50;99.90;;;;;;5156381;27;20134;-68
2023/06/10 01:43:22;;;;;;;12.23;5.55;;;15.50;99.90;;;;;;5156249;27;20042;-71
2023/06/10 01:45:48;;;;;;;8.30;5.80;;;15.50;99.90;;;;;;5156248;27;20096;-69
2023/06/10 01:48:13;;;;;;;7.60;5.20;;;15.40;99.90;;;;;;5156860;27;20054;-71
2023/06/10 01:50:39;;;;;;;12.35;5.47;;;15.40;99.90;;;;;;5138153;27;20039;-69
2023/06/10 01:53:05;;;;;;;9.43;5.57;;;15.40;99.90;;;;;;5156455;27;20423;-70
2023/06/10 01:55:31;;;;;;;7.60;5.85;;;15.30;99.90;;;;;;5156318;27;20142;-69
2023/06/10 01:57:57;;;;;;;8.20;5.70;;;15.30;99.90;;;;;;5156382;27;20091;-69
2023/06/10 02:00:23;;;;;;;6.78;5.40;;;15.20;99.90;;;;;;5155997;27;20050;-69
2023/06/10 02:02:48;;;;;;;6.95;4.82;;;15.20;99.90;;;;;;5156421;27;20035;-68
2023/06/10 02:05:14;;;;;;;8.68;5.43;;;15.30;99.90;;;;;;5156423;27;20125;-70
2023/06/10 02:07:40;;;;;;;9.10;5.35;;;15.20;99.90;;;;;;5138083;27;20096;-69
2023/06/10 02:10:06;;;;;;;8.50;5.95;;;15.20;99.90;;;;;;5155952;27;20126;-71
2023/06/10 02:12:32;;;;;;;9.65;5.72;;;15.10;99.90;;;;;;5155732;27;20042;-69
2023/06/10 02:14:58;;;;;;;7.75;5.53;;;15.10;99.90;;;;;;5155739;27;20038;-69
2023/06/10 02:17:24;;;;;;;5.65;4.88;;;15.00;99.90;;;;;;5155481;27;20051;-69
2023/06/10 02:19:52;;;;;;;8.35;5.07;;;15.00;99.90;;;;;;5155424;27;20042;-68
2023/06/10 02:22:20;;;;;;;9.60;5.90;;;15.00;99.90;;;;;;5155822;27;20049;-67
2023/06/10 02:24:45;;;;;;;6.57;5.97;;;15.00;99.90;;;;;;5154871;27;20600;-66
2023/06/10 02:27:11;;;;;;;9.10;6.30;;;14.80;99.90;;;;;;5155641;27;20174;-67
2023/06/10 02:29:37;;;;;;;7.38;5.68;;;14.90;99.90;;;;;;5155277;27;20502;-67
2023/06/10 02:32:03;;;;;;;8.77;5.78;;;14.50;99.90;;;;;;5155559;27;20039;-67
2023/06/10 02:34:29;;;;;;;8.95;5.90;;;14.30;99.90;;;;;;5137007;27;20051;-68
2023/06/10 02:36:55;;;;;;;10.10;5.15;;;14.70;99.90;;;;;;5136956;27;20050;-67
2023/06/10 02:39:22;;;;;;;6.68;5.35;;;15.70;99.90;;;;;;5136284;27;20400;-68
2023/06/10 02:41:48;;;;;;;8.63;5.65;;;14.60;99.90;;;;;;5155068;27;20050;-65
2023/06/10 02:44:13;;;;;;;7.78;5.03;;;14.60;99.90;;;;;;5136644;27;20126;-66
2023/06/10 02:46:39;;;;;;;8.65;5.75;;;14.60;99.90;;;;;;5155093;27;20050;-67
2023/06/10 02:49:04;;;;;;;7.85;6.10;;;14.50;99.90;;;;;;5155290;27;20038;-65
2023/06/10 02:51:30;;;;;;;8.73;5.72;;;14.50;99.90;;;;;;5154974;27;20034;-67
2023/06/10 02:53:56;;;;;;;6.93;5.75;;;14.40;99.90;;;;;;5154681;27;20062;-66
2023/06/10 02:56:22;;;;;;;11.38;6.22;;;15.70;99.90;;;;;;5154459;27;20137;-66
2023/06/10 02:58:48;;;;;;;9.63;5.78;;;14.40;99.90;;;;;;5155213;27;20046;-65
2023/06/10 03:01:14;;;;;;;8.68;5.80;;;14.30;99.90;;;;;;5154799;27;20057;-66
2023/06/10 03:03:42;;;;;;;8.43;6.22;;;14.20;99.90;;;;;;5154356;27;20416;-66
2023/06/10 03:06:10;;;;;;;7.28;5.88;;;14.20;99.90;;;;;;5154933;27;20110;-66
2023/06/10 03:08:37;;;;;;;7.95;5.97;;;14.20;99.90;;;;;;5136692;27;20435;-68
2023/06/10 03:11:03;;;;;;;7.18;5.88;;;14.10;99.90;;;;;;5119242;27;20042;-67
2023/06/10 03:13:29;;;;;;;6.03;5.40;;;13.70;99.90;;;;;;5154533;27;20050;-66
2023/06/10 03:15:56;;;;;;;8.85;6.07;;;14.00;99.90;;;;;;5154553;27;20047;-66
2023/06/10 03:18:27;;;;;;;6.15;5.35;;;14.00;99.90;;;;;;5136034;27;20046;-66
2023/06/10 03:20:56;;;;;;;8.55;5.75;;;14.00;99.90;;;;;;5154450;27;20043;-67
2023/06/10 03:23:23;;;;;;;8.25;5.75;;;13.90;99.90;;;;;;5154627;27;20039;-66
2023/06/10 03:25:48;;;;;;;9.38;6.30;;;13.90;99.90;;;;;;5154711;27;20081;-66
2023/06/10 03:28:14;;;;;;;9.88;6.07;;;13.90;99.90;;;;;;5154388;27;20045;-65
2023/06/10 03:30:40;;;;;;;9.68;6.18;;;13.90;99.90;;;;;;5154252;27;20043;-65
2023/06/10 03:33:06;;;;;;;6.07;5.45;;;13.80;99.90;;;;;;5136102;27;20058;-65
2023/06/10 03:35:32;;;;;;;7.63;5.22;;;13.80;99.90;;;;;;5154630;27;20043;-67
2023/06/10 03:37:58;;;;;;;7.47;5.30;;;13.70;99.90;;;;;;5154257;27;20050;-67
2023/06/10 03:40:24;;;;;;;7.50;5.80;;;13.80;99.90;;;;;;5154195;27;20502;-66
2023/06/10 03:42:50;;;;;;;10.48;6.10;;;13.70;99.90;;;;;;5135765;27;20054;-66
2023/06/10 03:45:16;;;;;;;9.77;5.53;;;13.80;99.90;;;;;;5136174;27;20461;-66
2023/06/10 03:47:43;;;;;;;8.55;6.45;;;13.80;99.90;;;;;;5154215;27;20474;-66
2023/06/10 03:50:09;;;;;;;10.20;5.78;;;13.80;99.90;;;;;;5154276;27;20160;-66
2023/06/10 03:52:36;;;;;;;10.52;6.18;;;13.80;99.90;;;;;;5160572;27;20043;-66
2023/06/10 03:55:02;;;;;;;6.88;5.50;;;13.90;99.90;;;;;;5161072;27;20086;-66
2023/06/10 03:57:28;;;;;;;12.15;6.65;;;13.90;99.90;;;;;;5142557;27;20081;-67
2023/06/10 03:59:54;;;;;;;6.72;5.50;;;13.90;99.90;;;;;;5160891;27;20042;-66
2023/06/10 04:02:19;;;;;;;10.02;5.95;;;13.90;99.90;;;;;;5160782;27;20046;-66
2023/06/10 04:04:45;;;;;;;10.68;6.40;;;15.00;99.90;;;;;;5161685;27;20130;-67
2023/06/10 04:07:12;;;;;;;6.38;5.72;;;13.90;99.90;;;;;;5161309;27;20395;-66
2023/06/10 04:09:38;;;;;;;10.63;5.95;;;13.90;99.90;;;;;;5161418;27;20050;-65
2023/06/10 04:12:06;;;;;;;11.07;5.70;;;13.90;99.90;;;;;;5160835;27;20051;-66
2023/06/10 04:14:31;;;;;;;10.88;6.57;;;14.00;99.90;;;;;;5142552;27;20043;-66
2023/06/10 04:16:57;;;;;;;7.38;6.50;;;13.20;99.90;;;;;;5160847;27;20087;-66
2023/06/10 04:19:23;;;;;;;8.55;6.40;;;14.00;99.90;;;;;;5160721;27;20058;-67
2023/06/10 04:21:48;;;;;;;10.05;7.03;;;14.00;99.90;;;;;;5160933;27;20068;-66
2023/06/10 04:24:14;;;;;;;7.93;6.78;;;14.00;99.90;;;;;;5161242;27;20046;-66
2023/06/10 04:26:40;;;;;;;10.07;6.80;;;14.00;99.90;;;;;;5160770;27;20038;-66
2023/06/10 04:29:05;;;;;;;11.82;6.90;;;14.10;99.90;;;;;;5160776;27;20474;-65
2023/06/10 04:31:32;;;;;;;8.18;5.80;;;14.10;99.90;;;;;;5161079;27;20379;-66
2023/06/10 04:33:57;;;;;;;10.98;7.18;;;14.10;99.90;;;;;;5160867;27;20054;-66
2023/06/10 04:36:23;;;;;;;10.25;6.32;;;14.20;99.90;;;;;;5142634;27;20490;-66
2023/06/10 04:38:51;;;;;;;10.38;7.13;;;14.20;99.90;;;;;;5142093;27;20129;-66
2023/06/10 04:41:17;;;;;;;10.75;6.63;;;14.30;99.90;;;;;;5160729;27;20042;-66
2023/06/10 04:43:43;;;;;;;12.88;6.95;;;14.30;99.90;;;;;;5160922;27;20427;-66
2023/06/10 04:46:10;;;;;;;11.25;6.97;;;14.40;99.90;;;;;;5161189;27;20047;-67
2023/06/10 04:48:36;;;;;;;9.63;6.22;;;14.40;99.90;;;;;;5142310;27;20073;-66
2023/06/10 04:51:02;;;;;;;10.20;7.50;;;14.40;99.90;;;;;;5160406;27;20053;-65
2023/06/10 04:53:28;;;;;;;12.02;7.35;;;14.50;99.90;;;;;;5160482;27;20105;-66
2023/06/10 04:55:54;;;;;;;12.95;7.25;;;14.50;99.90;;;;;;5160357;27;20485;-66
2023/06/10 04:58:20;;;;;;;11.77;7.38;;;14.60;99.90;;;;;;5160706;27;20122;-66
2023/06/10 05:00:45;;;;;;;14.23;7.68;;;14.70;99.90;;;;;;5142127;27;20055;-66
2023/06/10 05:03:11;;;;;;;10.32;7.70;;;14.70;99.90;;;;;;5158093;27;20519;-66
2023/06/10 05:05:37;;;;;;;12.68;6.85;;;14.80;99.90;;;;;;5157608;27;20049;-66
2023/06/10 05:08:02;;;;;;;14.88;7.75;;;14.80;99.90;;;;;;5157515;27;20047;-66
2023/06/10 05:10:31;;;;;;;10.55;7.18;;;15.00;99.90;;;;;;5138750;27;20046;-66
2023/06/10 05:12:58;;;;;;;11.77;7.65;;;15.00;99.90;;;;;;5139372;27;20085;-66
2023/06/10 05:15:24;;;;;;;10.90;7.68;;;15.10;99.90;;;;;;5138803;27;20084;-66
2023/06/10 05:17:50;;;;;;;11.15;8.38;;;15.20;99.90;;;;;;5138483;27;20491;-66
2023/06/10 05:20:16;;;;;;;13.52;7.38;;;15.30;99.90;;;;;;5156917;27;20163;-66
2023/06/10 05:22:41;;;;;;;9.02;7.47;;;15.30;99.90;;;;;;5156698;27;20042;-65
2023/06/10 05:25:08;;;;;;;12.23;8.43;;;15.40;99.90;;;;;;5156952;27;20035;-65
2023/06/10 05:27:33;;;;;;;13.07;7.60;;;15.50;99.90;;;;;;5156629;27;20049;-66
2023/06/10 05:29:59;;;;;;;9.35;7.82;;;15.50;99.90;;;;;;5156687;27;20042;-66
2023/06/10 05:32:25;;;;;;;9.90;7.10;;;15.60;99.90;;;;;;5157030;27;20099;-66
2023/06/10 05:34:50;;;;;;;11.93;8.00;;;15.70;99.90;;;;;;5156521;27;20193;-66
2023/06/10 05:37:16;;;;;;;13.68;8.10;;;15.80;99.90;;;;;;5156945;27;20387;-66
2023/06/10 05:39:42;;;;;;;10.13;7.63;;;15.90;99.90;;;;;;5157275;27;20065;-66
2023/06/10 05:42:10;;;;;;;12.75;8.63;;;15.90;99.90;;;;;;5138284;27;20078;-66
2023/06/10 05:44:36;;;;;;;9.68;6.82;;;16.00;99.90;;;;;;5137927;27;20050;-67
2023/06/10 05:47:02;;;;;;;9.48;7.15;;;16.10;99.90;;;;;;5156251;27;20047;-66
2023/06/10 05:49:28;;;;;;;12.98;7.85;;;16.20;99.90;;;;;;5156534;27;20091;-66
2023/06/10 05:51:55;;;;;;;12.63;8.77;;;16.30;99.90;;;;;;5138571;27;20051;-67
2023/06/10 05:54:21;;;;;;;9.30;7.28;;;16.40;99.90;;;;;;5156560;27;20143;-67
2023/06/10 05:56:50;;;;;;;9.95;7.03;;;16.60;99.90;;;;;;5155866;27;20126;-67
2023/06/10 05:59:15;;;;;;;11.65;6.65;;;16.70;99.90;;;;;;5156163;27;20103;-66
2023/06/10 06:01:41;;;;;;;10.32;7.03;;;16.80;99.90;;;;;;5156080;27;20042;-67
2023/06/10 06:04:07;;;;;;;11.25;7.68;;;17.00;99.90;;;;;;5155837;27;20039;-67
2023/06/10 06:06:32;;;;;;;10.65;7.20;;;17.20;99.90;;;;;;5156184;27;20049;-66
2023/06/10 06:08:58;;;;;;;10.93;6.07;;;17.30;99.90;;;;;;5156312;27;20521;-67
2023/06/10 06:11:25;;;;;;;11.88;6.70;;;17.40;99.90;;;;;;5137595;27;20126;-67
2023/06/10 06:13:51;;;;;;;14.52;6.75;;;17.70;99.90;;;;;;5136800;27;20517;-66
2023/06/10 06:16:18;;;;;;;11.38;6.90;;;18.00;99.90;;;;;;5155742;27;20074;-67
2023/06/10 06:18:44;;;;;;;10.45;6.55;;;18.20;99.90;;;;;;5137481;27;20089;-68
2023/06/10 06:21:09;;;;;;;12.63;6.05;;;19.30;99.90;;;;;;5119847;27;20066;-68
2023/06/10 06:23:35;;;;;;;9.60;5.75;;;20.70;99.90;;;;;;5155948;27;20126;-67
2023/06/10 06:26:01;;;;;;;9.27;5.68;;;21.80;99.90;;;;;;5137471;27;20042;-67
2023/06/10 06:28:29;;;;;;;8.25;5.72;;;22.80;99.90;;;;;;5155162;27;20397;-68
2023/06/10 06:30:55;;;;;;;9.13;5.80;;;23.20;99.90;;;;;;5137649;27;20046;-68
2023/06/10 06:33:21;;;;;;;8.63;5.22;;;23.70;99.90;;;;;;5155698;27;20500;-67
2023/06/10 06:35:47;;;;;;;10.65;5.40;;;24.10;99.90;;;;;;5155277;27;20047;-67
2023/06/10 06:38:13;;;;;;;8.18;5.32;;;24.60;99.50;;;;;;5155925;27;20122;-68
2023/06/10 06:40:38;;;;;;;10.73;5.53;;;24.60;99.30;;;;;;5136609;27;20580;-69
2023/06/10 06:43:04;;;;;;;10.40;4.47;;;24.60;99.20;;;;;;5136781;27;20043;-67
2023/06/10 06:45:30;;;;;;;6.53;5.20;;;25.00;98.30;;;;;;5154915;27;20039;-69
2023/06/10 06:47:56;;;;;;;5.78;5.18;;;25.20;98.10;;;;;;5154994;27;20042;-67
2023/06/10 06:50:21;;;;;;;9.35;5.65;;;25.00;97.60;;;;;;5154915;27;20103;-70
2023/06/10 06:52:47;;;;;;;6.75;4.90;;;25.40;96.70;;;;;;5154981;27;20047;-68
2023/06/10 06:55:13;;;;;;;7.32;5.18;;;25.60;96.20;;;;;;5119297;27;20066;-67
2023/06/10 06:57:38;;;;;;;8.25;4.45;;;26.00;95.70;;;;;;5155365;27;20039;-68
2023/06/10 07:00:06;;;;;;;9.80;4.93;;;26.10;95.50;;;;;;5154947;27;20095;-68
2023/06/10 07:02:33;;;;;;;7.03;5.22;;;26.20;94.00;;;;;;5154723;27;20090;-68
2023/06/10 07:04:58;;;;;;;6.25;4.70;;;26.40;93.60;;;;;;5137075;27;20404;-67
2023/06/10 07:07:24;;;;;;;7.60;4.85;;;26.60;94.40;;;;;;5154763;27;20043;-68
2023/06/10 07:09:50;;;;;;;8.80;4.72;;;26.70;94.30;;;;;;5137059;27;20050;-68
2023/06/10 07:12:16;;;;;;;6.05;4.65;;;27.20;93.80;;;;;;5136265;27;20496;-68
2023/06/10 07:14:41;;;;;;;7.63;5.32;;;27.20;93.40;;;;;;5155167;27;20038;-70
2023/06/10 07:17:08;;;;;;;8.52;5.13;;;27.20;93.00;;;;;;5154903;27;20467;-67
2023/06/10 07:19:33;;;;;;;6.43;5.03;;;27.20;92.90;;;;;;5154393;27;20038;-69
2023/06/10 07:21:59;;;;;;;8.23;4.90;;;27.30;92.20;;;;;;5154074;27;20085;-68
2023/06/10 07:24:25;;;;;;;9.05;5.78;;;27.60;92.60;;;;;;5155131;27;20046;-68
2023/06/10 07:26:50;;;;;;;7.00;4.82;;;27.50;92.00;;;;;;5153756;27;20483;-69
2023/06/10 07:29:16;;;;;;;6.65;5.00;;;27.70;91.90;;;;;;5154610;27;20585;-68
2023/06/10 07:31:42;;;;;;;6.32;4.80;;;28.00;91.80;;;;;;5154200;27;20052;-69
2023/06/10 07:34:08;;;;;;;7.45;5.03;;;27.70;91.20;;;;;;5154798;27;20050;-68
2023/06/10 07:36:33;;;;;;;9.00;5.22;;;28.10;91.50;;;;;;5136110;27;20430;-68
2023/06/10 07:38:59;;;;;;;8.65;5.68;;;27.90;91.30;;;;;;5154594;27;20038;-68
2023/06/10 07:41:25;;;;;;;9.07;5.50;;;27.60;90.70;;;;;;5155224;27;20039;-68
2023/06/10 07:43:54;;;;;;;6.97;4.93;;;27.90;91.50;;;;;;5135781;27;20411;-69
2023/06/10 07:46:23;;;;;;;7.00;5.15;;;28.10;90.90;;;;;;5154186;27;20064;-68
2023/06/10 07:48:49;;;;;;;5.28;4.78;;;28.80;90.30;;;;;;5154072;27;20050;-68
2023/06/10 07:51:16;;;;;;;6.32;5.72;;;28.70;90.10;;;;;;5135882;27;20049;-69
2023/06/10 07:53:42;;;;;;;6.93;5.60;;;28.30;89.70;;;;;;5154596;27;20069;-69
2023/06/10 07:56:08;;;;;;;7.40;5.22;;;28.30;89.80;;;;;;5154668;27;20504;-68
2023/06/10 07:58:33;;;;;;;6.95;4.90;;;28.80;89.60;;;;;;5154565;27;20046;-68
2023/06/10 08:00:59;;;;;;;8.75;5.45;;;29.20;89.20;;;;;;5136436;27;20411;-67
2023/06/10 08:03:25;;;;;;;7.22;5.18;;;29.00;87.90;;;;;;5135506;27;20046;-66
2023/06/10 08:05:50;;;;;;;5.13;4.63;;;29.40;87.00;;;;;;5154034;27;20479;-68
2023/06/10 08:08:16;;;;;;;6.80;5.00;;;29.60;86.80;;;;;;5154284;27;20127;-66
2023/06/10 08:10:41;;;;;;;7.32;4.68;;;29.80;85.90;;;;;;5153900;27;20039;-67
2023/06/10 08:13:08;;;;;;;6.90;4.38;;;29.50;85.80;;;;;;5153980;27;20039;-66
2023/06/10 08:15:34;;;;;;;6.53;4.63;;;29.40;85.30;;;;;;5136366;27;20042;-67
2023/06/10 08:18:00;;;;;;;6.38;4.55;;;29.20;85.50;;;;;;5154017;27;20039;-66
2023/06/10 08:20:26;;;;;;;5.80;3.83;;;28.90;85.60;;;;;;5153706;27;20454;-66
2023/06/10 08:22:51;;;;;;;6.28;4.45;;;28.80;85.80;;;;;;5153823;27;20054;-66
2023/06/10 08:25:17;;;;;;;5.38;4.75;;;28.70;85.20;;;;;;5153870;27;20043;-69
2023/06/10 08:27:43;;;;;;;6.88;4.70;;;28.50;85.60;;;;;;5153726;27;20042;-66
2023/06/10 08:30:10;;;;;;;7.50;5.53;;;28.40;85.70;;;;;;5154232;27;20050;-67
2023/06/10 08:32:36;;;;;;;7.13;4.35;;;28.20;85.00;;;;;;5154093;27;20526;-67
2023/06/10 08:35:02;;;;;;;6.88;4.90;;;28.10;86.10;;;;;;5154171;27;20125;-68
2023/06/10 08:37:29;;;;;;;4.35;3.92;;;28.50;86.20;;;;;;5155658;27;20046;-66
2023/06/10 08:39:55;;;;;;;10.75;5.10;;;28.80;85.20;;;;;;5158227;27;20047;-66
2023/06/10 08:42:33;;;;;;;6.55;4.10;;;28.90;84.30;;;;;;5157789;27;20460;-67
2023/06/10 08:45:01;;;;;;;5.82;4.43;;;29.10;83.70;;;;;;5139702;27;20115;-66
2023/06/10 08:47:31;;;;;;;6.80;4.15;;;29.10;84.40;;;;;;5157856;27;20065;-68
2023/06/10 08:50:03;;;;;;;5.38;3.85;;;29.10;84.00;;;;;;5157362;27;20072;-68
2023/06/10 08:52:34;;;;;;;6.13;4.22;;;28.90;84.00;;;;;;5139263;27;20082;-67
2023/06/10 08:55:04;;;;;;;8.30;3.70;;;29.00;83.70;;;;;;5157613;27;20502;-67
2023/06/10 08:57:31;;;;;;;4.50;3.80;;;29.10;83.60;;;;;;5157747;27;20115;-66
2023/06/10 08:59:57;;;;;;;6.70;4.40;;;29.30;85.00;;;;;;5139152;27;20095;-67
2023/06/10 09:02:24;;;;;;;4.50;3.53;;;29.40;84.30;;;;;;5138721;27;20391;-67
2023/06/10 09:04:50;;;;;;;5.57;4.32;;;29.70;84.20;;;;;;5157059;27;20090;-66
2023/06/10 09:07:16;;;;;;;6.45;4.68;;;29.90;82.60;;;;;;5157016;27;20092;-66
2023/06/10 09:09:44;;;;;;;5.30;4.20;;;29.70;81.40;;;;;;5156974;27;20488;-66
2023/06/10 09:12:11;;;;;;;5.57;4.07;;;29.70;82.10;;;;;;5157023;27;20467;-66
2023/06/10 09:14:36;;;;;;;5.40;4.28;;;30.00;82.20;;;;;;5157537;27;20046;-66
2023/06/10 09:17:03;;;;;;;9.05;4.18;;;30.10;80.90;;;;;;5157344;27;20371;-68
2023/06/10 09:19:29;;;;;;;5.57;4.28;;;30.20;79.90;;;;;;5121856;27;20062;-66
2023/06/10 09:21:55;;;;;;;6.55;4.68;;;29.90;79.90;;;;;;5138319;27;20050;-66
2023/06/10 09:24:23;;;;;;;4.38;3.80;;;29.80;80.10;;;;;;5157215;27;20070;-67
2023/06/10 09:26:50;;;;;;;5.45;4.32;;;29.80;80.70;;;;;;5156982;27;20069;-66
2023/06/10 09:29:16;;;;;;;5.80;4.07;;;29.30;81.30;;;;;;5156556;27;20043;-66
2023/06/10 09:31:43;;;;;;;5.03;3.90;;;29.60;80.00;;;;;;5156555;27;20041;-68
2023/06/10 09:34:15;;;;;;;7.38;4.47;;;28.50;80.60;;;;;;5157166;27;20118;-66
2023/06/10 09:36:41;;;;;;;4.40;3.58;;;28.70;81.80;;;;;;5156618;27;20074;-67
2023/06/10 09:39:17;;;;;;;4.90;3.53;;;28.70;81.80;;;;;;5156235;27;20495;-67
2023/06/10 09:41:45;;;;;;;6.60;4.60;;;29.10;81.10;;;;;;5156492;27;20083;-66
2023/06/10 09:44:14;;;;;;;5.47;4.63;;;29.10;81.40;;;;;;5156426;27;20039;-68
2023/06/10 09:46:40;;;;;;;5.72;4.03;;;29.10;80.60;;;;;;5156437;27;20050;-67
2023/06/10 09:49:06;;;;;;;5.28;3.75;;;29.20;81.90;;;;;;5155837;27;20066;-67
2023/06/10 09:51:32;;;;;;;4.88;4.35;;;29.00;81.90;;;;;;5156184;27;20364;-66
2023/06/10 09:54:01;;;;;;;5.45;3.30;;;29.10;80.60;;;;;;5155936;27;20059;-66
2023/06/10 09:56:37;;;;;;;4.22;3.55;;;28.70;80.00;;;;;;5137590;27;20054;-68
2023/06/10 09:59:06;;;;;;;6.88;4.10;;;29.00;80.40;;;;;;5156789;27;20416;-69
2023/06/10 10:01:33;;;;;;;7.07;4.28;;;29.00;79.90;;;;;;5137774;27;20052;-66
2023/06/10 10:03:59;;;;;;;4.28;3.17;;;29.00;79.60;;;;;;5156043;27;20046;-66
2023/06/10 10:06:25;;;;;;;4.75;3.50;;;28.70;79.80;;;;;;5156073;27;20042;-66
2023/06/10 10:08:51;;;;;;;4.03;3.60;;;28.70;79.60;;;;;;5137643;27;20042;-67
2023/06/10 10:11:19;;;;;;;9.52;4.68;;;29.00;79.90;;;;;;5155649;27;20038;-66
2023/06/10 10:13:47;;;;;;;6.53;3.10;;;29.00;80.00;;;;;;5155560;27;20440;-68
2023/06/10 10:16:25;;;;;;;5.15;3.35;;;29.30;80.40;;;;;;5155891;27;20085;-66
2023/06/10 10:19:06;;;;;;;4.85;3.90;;;28.80;79.90;;;;;;5156220;27;20107;-67
2023/06/10 10:21:39;;;;;;;6.07;3.67;;;28.60;79.40;;;;;;5155942;27;20117;-68
2023/06/10 10:24:17;;;;;;;6.07;4.07;;;28.20;79.90;;;;;;5137184;27;20527;-67
2023/06/10 10:26:45;;;;;;;5.80;4.07;;;27.90;78.90;;;;;;5138027;27;20492;-66
2023/06/10 10:29:24;;;;;;;7.47;4.10;;;28.10;80.80;;;;;;5156054;27;20061;-67
2023/06/10 10:31:53;;;;;;;6.90;4.20;;;28.00;80.30;;;;;;5155993;27;20047;-67
2023/06/10 10:34:33;;;;;;;7.25;3.45;;;28.10;80.70;;;;;;5137292;27;20051;-67
2023/06/10 10:36:59;;;;;;;3.72;2.95;;;28.60;79.40;;;;;;5155301;27;20080;-67
2023/06/10 10:39:28;;;;;;;6.78;3.40;;;28.80;80.10;;;;;;5155529;27;20042;-67
2023/06/10 10:41:55;;;;;;;5.38;3.30;;;29.00;79.30;;;;;;5137068;27;20051;-67
2023/06/10 10:44:21;;;;;;;4.90;3.38;;;28.90;79.30;;;;;;5155166;27;20118;-66
2023/06/10 10:46:50;;;;;;;4.50;3.05;;;28.60;79.90;;;;;;5155641;27;20050;-66
2023/06/10 10:49:18;;;;;;;4.00;2.83;;;28.80;80.40;;;;;;5155750;27;20069;-66
2023/06/10 10:52:00;;;;;;;5.57;3.38;;;28.70;78.60;;;;;;5137082;27;20047;-68
2023/06/10 10:54:31;;;;;;;4.97;3.13;;;28.80;75.70;;;;;;5154731;27;20051;-65
2023/06/10 10:57:10;;;;;;;5.63;3.55;;;29.00;77.10;;;;;;5136872;27;20465;-67
2023/06/10 10:59:48;;;;;;;3.70;2.97;;;29.00;78.40;;;;;;5154531;27;20494;-67
2023/06/10 11:02:33;;;;;;;3.60;2.97;;;28.90;78.40;;;;;;5154761;27;20053;-67
2023/06/10 11:05:00;;;;;;;3.28;2.92;;;28.50;75.50;;;;;;5154861;27;20483;-65
2023/06/10 11:07:26;;;;;;;4.97;3.15;;;28.40;76.90;;;;;;5136428;27;20090;-66
2023/06/10 11:10:07;;;;;;;4.70;3.20;;;28.40;77.90;;;;;;5154749;27;20406;-66
2023/06/10 11:12:45;;;;;;;3.92;3.20;;;28.20;78.60;;;;;;5154760;27;20053;-65
2023/06/10 11:15:11;;;;;;;4.82;3.42;;;28.20;78.80;;;;;;5154740;27;20108;-67
2023/06/10 11:17:37;;;;;;;4.82;3.30;;;28.10;78.50;;;;;;5154466;27;20082;-65
2023/06/10 11:20:03;;;;;;;5.60;3.20;;;27.90;79.40;;;;;;5154654;27;20052;-66
2023/06/10 11:22:29;;;;;;;5.15;4.00;;;28.10;79.40;;;;;;5154388;27;20035;-69
2023/06/10 11:24:55;;;;;;;6.13;3.38;;;27.60;79.60;;;;;;5136566;27;20043;-66
2023/06/10 11:27:24;;;;;;;5.50;3.28;;;27.50;79.50;;;;;;5136842;27;20382;-67
2023/06/10 11:29:56;;;;;;;11.48;6.40;;;27.60;79.90;;;;;;5136521;27;20126;-66
2023/06/10 11:32:26;;;;;;;7.32;3.63;;;27.40;81.70;;;;;;5154496;27;20085;-66
2023/06/10 11:34:55;;;;;;;4.45;3.65;;;27.20;82.90;;;;;;5154525;27;20046;-65
2023/06/10 11:37:21;;;;;;;8.63;3.67;;;27.20;82.50;;;;;;5154356;27;20099;-67
2023/06/10 11:39:51;;;;;;;7.30;3.72;;;27.20;83.30;;;;;;5153879;27;20446;-67
2023/06/10 11:42:17;;;;;;;7.95;4.28;;;26.90;83.50;;;;;;5154265;27;20053;-67
2023/06/10 11:44:49;;;;;;;5.60;4.18;;;27.10;83.90;;;;;;5154211;27;20049;-67
2023/06/10 11:47:15;;;;;;;4.00;3.60;;;26.90;83.60;;;;;;5136711;27;20069;-66
2023/06/10 11:49:40;;;;;;;8.18;3.90;;;26.90;83.20;;;;;;5136504;27;20406;-66
2023/06/10 11:52:07;;;;;;;7.90;3.95;;;26.90;84.10;;;;;;5154141;27;20058;-67
2023/06/10 11:54:32;;;;;;;5.47;3.67;;;27.20;83.80;;;;;;5132112;28;20059;-68
2023/06/10 11:57:02;;;;;;;6.15;4.72;;;27.30;82.80;;;;;;5133445;27;20452;-67
2023/06/10 11:59:29;;;;;;;6.50;3.83;;;27.40;82.60;;;;;;5133434;27;20515;-68
2023/06/10 12:01:55;;;;;;;5.45;3.38;;;26.70;83.30;;;;;;5133876;27;20122;-66
2023/06/10 12:04:25;;;;;;;4.57;3.75;;;27.10;82.60;;;;;;5133355;27;20122;-66
2023/06/10 12:06:52;;;;;;;4.28;3.80;;;27.00;83.20;;;;;;5133849;27;20114;-67
2023/06/10 12:09:25;;;;;;;3.85;3.55;;;27.30;82.30;;;;;;5133423;27;20091;-67
2023/06/10 12:12:00;;;;;;;5.20;3.75;;;27.30;82.30;;;;;;5132683;27;20078;-67
2023/06/10 12:14:56;;;;;;;4.93;3.92;;;27.20;83.70;;;;;;5137384;27;20086;-67
2023/06/10 12:17:34;;;;;;;4.43;3.42;;;27.20;81.60;;;;;;5137314;27;20046;-68
2023/06/10 12:20:28;;;;;;;5.78;3.65;;;27.30;81.00;;;;;;5137083;27;20129;-67
2023/06/10 12:22:54;;;;;;;5.05;4.28;;;27.30;82.30;;;;;;5137193;27;20493;-68
2023/06/10 12:25:27;;;;;;;7.15;5.07;;;27.30;82.00;;;;;;5137676;27;20047;-67
2023/06/10 12:27:55;;;;;;;5.18;4.18;;;27.40;83.00;;;;;;5137644;27;20065;-67
2023/06/10 12:30:23;;;;;;;7.25;4.70;;;27.40;82.90;;;;;;5136152;27;20043;-66
2023/06/10 12:32:48;;;;;;;5.57;4.05;;;27.20;82.80;;;;;;5136862;27;20496;-67
2023/06/10 12:35:18;;;;;;;6.25;4.03;;;27.40;82.80;;;;;;5135735;27;20068;-67
2023/06/10 12:38:01;;;;;;;5.43;4.03;;;27.40;83.60;;;;;;5136967;27;20083;-68
2023/06/10 12:40:35;;;;;;;5.20;3.88;;;27.10;83.80;;;;;;5137247;27;20057;-68
2023/06/10 12:43:02;;;;;;;4.88;3.80;;;27.20;84.30;;;;;;5136782;27;20525;-66
2023/06/10 12:45:39;;;;;;;10.15;4.43;;;27.30;83.70;;;;;;5136684;27;20374;-68
2023/06/10 12:48:17;;;;;;;5.43;4.20;;;27.30;83.10;;;;;;5136613;27;20390;-66